Time;durP1;ratioP1;P1;durP2;ratioP2;P2;SDS_P1;SDS_P2;PMS_P1;PMS_P2;Temp;Humidity;BMP_temperature;BMP_pressure;BME280_temperature;BME280_humidity;BME280_pressure;Samples;Min_cycle;Max_cycle;Signal;HPM_P1;HPM_P2
2023/10/31 00:01:43;;;;;;;1.00;0.80;;;;;;;13.11;nan;98124.16;4901877;29;20206;-80
2023/10/31 00:04:08;;;;;;;0.77;0.70;;;;;;;13.12;nan;98123.19;4902842;29;20202;-78
2023/10/31 00:06:35;;;;;;;4.00;1.83;;;;;;;13.09;nan;98126.13;4902231;29;20309;-79
2023/10/31 00:09:00;;;;;;;0.70;0.60;;;;;;;13.07;nan;98139.47;4905755;29;20205;-79
2023/10/31 00:11:26;;;;;;;1.00;0.80;;;;;;;13.03;nan;98136.28;4908912;29;20213;-79
2023/10/31 00:13:51;;;;;;;1.97;0.60;;;;;;;13.00;nan;98139.22;4905708;29;20241;-79
2023/10/31 00:16:16;;;;;;;2.83;0.90;;;;;;;12.97;nan;98142.16;4907275;29;20503;-79
2023/10/31 00:18:42;;;;;;;0.87;0.70;;;;;;;12.95;nan;98133.56;4906476;29;20233;-79
2023/10/31 00:21:07;;;;;;;0.80;0.70;;;;;;;12.91;nan;98131.38;4908836;29;20320;-79
2023/10/31 00:23:33;;;;;;;1.07;0.70;;;;;;;12.87;nan;98133.47;4901761;29;21697;-78
2023/10/31 00:25:58;;;;;;;0.90;0.80;;;;;;;12.86;nan;98131.84;4908650;29;20214;-78
2023/10/31 00:28:23;;;;;;;2.23;1.00;;;;;;;12.85;nan;98138.06;4906645;29;20214;-79
2023/10/31 00:30:49;;;;;;;0.80;0.60;;;;;;;12.84;nan;98134.59;4905032;29;20236;-79
2023/10/31 00:33:14;;;;;;;0.80;0.67;;;;;;;12.85;nan;98138.06;4910809;29;20206;-78
2023/10/31 00:35:39;;;;;;;0.90;0.80;;;;;;;12.84;nan;98139.06;4907323;29;20277;-79
2023/10/31 00:38:05;;;;;;;2.40;0.67;;;;;;;12.83;nan;98140.88;4887761;29;20209;-78
2023/10/31 00:40:30;;;;;;;1.30;0.83;;;;;;;12.83;nan;98145.31;4906298;29;20642;-79
2023/10/31 00:42:58;;;;;;;1.73;0.80;;;;;;;12.83;nan;98137.41;4909123;29;20206;-79
2023/10/31 00:45:23;;;;;;;1.48;0.90;;;;;;;12.82;nan;98143.63;4890356;29;20601;-81
2023/10/31 00:47:49;;;;;;;1.73;0.93;;;;;;;12.82;nan;98151.53;4906629;29;20214;-79
2023/10/31 00:50:14;;;;;;;1.67;0.80;;;;;;;12.80;nan;98145.59;4905485;29;20218;-79
2023/10/31 00:52:39;;;;;;;0.93;0.70;;;;;;;12.78;nan;98150.19;4886505;29;20259;-79
2023/10/31 00:55:05;;;;;;;0.93;0.70;;;;;;;12.78;nan;98139.66;4895799;29;20266;-79
2023/10/31 00:57:30;;;;;;;0.80;0.63;;;;;;;12.78;nan;98137.84;4878520;29;20211;-79
2023/10/31 00:59:56;;;;;;;2.10;0.77;;;;;;;12.78;nan;98139.66;4897011;29;21437;-79
2023/10/31 01:02:22;;;;;;;2.25;0.95;;;;;;;12.77;nan;98133.56;4893773;29;20207;-79
2023/10/31 01:04:47;;;;;;;1.10;0.70;;;;;;;;;;4897165;29;20229;-79
2023/10/31 01:07:16;;;;;;;1.63;0.97;;;;;;;12.75;nan;98132.88;4896552;29;20249;-79
2023/10/31 01:09:42;;;;;;;1.15;0.80;;;;;;;12.75;nan;98132.88;4907854;29;20210;-79
2023/10/31 01:12:10;;;;;;;1.20;0.73;;;;;;;12.75;nan;98129.41;4905725;29;20671;-78
2023/10/31 01:14:35;;;;;;;1.20;0.90;;;;;;;12.74;nan;98127.72;4901530;29;20424;-79
2023/10/31 01:17:00;;;;;;;2.10;0.70;;;;;;;12.73;nan;98137.44;4884496;29;20523;-79
2023/10/31 01:19:26;;;;;;;1.17;1.00;;;;;;;12.71;nan;98134.13;4905537;29;20293;-79
2023/10/31 01:21:51;;;;;;;0.83;0.70;;;;;;;12.72;nan;98140.22;4892580;29;20681;-79
2023/10/31 01:24:17;;;;;;;0.77;0.60;;;;;;;12.68;nan;98144.97;4902979;29;20198;-79
2023/10/31 01:26:42;;;;;;;2.30;0.90;;;;;;;12.72;nan;98150.75;4893112;29;20225;-79
2023/10/31 01:29:08;;;;;;;0.90;0.70;;;;;;;12.73;nan;98149.78;4904454;29;20212;-80
2023/10/31 01:31:34;;;;;;;1.57;0.83;;;;;;;12.72;nan;98151.59;4904375;29;20206;-78
2023/10/31 01:34:00;;;;;;;2.67;0.80;;;;;;;12.73;nan;98157.69;4901779;29;20241;-79
2023/10/31 01:36:26;;;;;;;0.77;0.67;;;;;;;12.74;nan;98161.97;4893920;29;20272;-78
2023/10/31 01:38:52;;;;;;;2.53;1.17;;;;;;;12.74;nan;98154.06;4905852;29;20241;-79
2023/10/31 01:41:17;;;;;;;2.50;0.70;;;;;;;12.72;nan;98161.28;4887973;29;20213;-79
2023/10/31 01:43:43;;;;;;;3.83;0.80;;;;;;;12.70;nan;98176.44;4891754;29;20297;-78
2023/10/31 01:46:08;;;;;;;1.00;0.90;;;;;;;12.69;nan;98169.50;4903173;29;20701;-79
2023/10/31 01:48:35;;;;;;;1.00;0.70;;;;;;;12.68;nan;98166.03;4910053;29;20201;-79
2023/10/31 01:51:06;;;;;;;0.90;0.77;;;;;;;12.67;nan;98174.09;4906644;29;20214;-79
2023/10/31 01:53:33;;;;;;;1.02;0.80;;;;;;;12.63;nan;98173.53;4887935;29;20198;-79
2023/10/31 01:56:01;;;;;;;1.35;0.85;;;;;;;12.63;nan;98171.72;4908433;29;20213;-79
2023/10/31 01:58:33;;;;;;;1.10;0.88;;;;;;;12.62;nan;98177.16;4886277;29;20409;-79
2023/10/31 02:01:00;;;;;;;0.70;0.70;;;;;;;12.62;nan;98175.34;4889377;29;20236;-79
2023/10/31 02:03:26;;;;;;;1.08;0.70;;;;;;;12.59;nan;98177.47;4903485;29;20213;-79
2023/10/31 02:05:52;;;;;;;1.40;0.82;;;;;;;12.58;nan;98186.31;4906811;29;20190;-78
2023/10/31 02:08:18;;;;;;;1.23;0.90;;;;;;;12.55;nan;98181.34;4888487;29;20300;-79
2023/10/31 02:10:43;;;;;;;1.00;0.60;;;;;;;12.52;nan;98197.44;4907481;29;20871;-78
2023/10/31 02:13:13;;;;;;;1.07;0.80;;;;;;;12.52;nan;98195.63;4893155;29;20205;-79
2023/10/31 02:15:39;;;;;;;1.23;0.90;;;;;;;12.52;nan;98206.16;4906777;29;20214;-79
2023/10/31 02:18:05;;;;;;;1.57;0.87;;;;;;;12.51;nan;98207.16;4904481;29;20202;-79
2023/10/31 02:20:30;;;;;;;1.27;0.90;;;;;;;;;;4909869;29;21000;-79
2023/10/31 02:22:56;;;;;;;1.37;0.67;;;;;;;12.54;nan;98220.03;4905264;29;20947;-79
2023/10/31 02:25:21;;;;;;;0.90;0.80;;;;;;;12.54;nan;98224.47;4889484;29;20265;-78
2023/10/31 02:27:46;;;;;;;1.43;1.00;;;;;;;12.51;nan;98225.59;4907473;29;20226;-79
2023/10/31 02:30:14;;;;;;;0.70;0.70;;;;;;;12.51;nan;98230.03;4891984;29;20245;-79
2023/10/31 02:32:40;;;;;;;1.73;1.20;;;;;;;12.51;nan;98236.13;4883601;29;21323;-79
2023/10/31 02:35:08;;;;;;;1.47;1.10;;;;;;;12.50;nan;98246.78;4902591;29;20242;-79
2023/10/31 02:37:34;;;;;;;1.33;0.90;;;;;;;12.48;nan;98254.84;4903087;29;20498;-79
2023/10/31 02:40:00;;;;;;;1.27;0.80;;;;;;;12.48;nan;98259.28;4908517;29;20217;-79
2023/10/31 02:42:26;;;;;;;1.40;1.10;;;;;;;12.48;nan;98259.28;4888659;29;20545;-79
2023/10/31 02:44:51;;;;;;;1.30;0.90;;;;;;;12.47;nan;98263.69;4911002;29;20739;-80
2023/10/31 02:47:17;;;;;;;0.90;0.73;;;;;;;12.47;nan;98260.25;4889529;29;20566;-79
2023/10/31 02:49:42;;;;;;;3.13;0.90;;;;;;;12.43;nan;98267.59;4901511;29;20732;-80
2023/10/31 02:52:08;;;;;;;0.90;0.80;;;;;;;12.43;nan;98254.44;4905832;29;20230;-80
2023/10/31 02:54:33;;;;;;;1.03;0.70;;;;;;;12.45;nan;98255.13;4917882;29;20194;-80
2023/10/31 02:57:00;;;;;;;2.03;1.10;;;;;;;12.45;nan;98265.66;4917564;29;20242;-80
2023/10/31 02:59:25;;;;;;;1.00;0.80;;;;;;;12.44;nan;98269.25;4908137;29;20237;-80
2023/10/31 03:01:51;;;;;;;2.80;0.90;;;;;;;12.44;nan;98278.97;4912043;29;20225;-80
2023/10/31 03:04:17;;;;;;;1.98;1.30;;;;;;;12.44;nan;98273.69;4911204;29;20225;-80
2023/10/31 03:06:42;;;;;;;1.87;1.10;;;;;;;12.42;nan;98280.91;4916250;29;20696;-80
2023/10/31 03:09:08;;;;;;;1.87;1.00;;;;;;;12.40;nan;98281.06;4908247;29;20216;-79
2023/10/31 03:11:33;;;;;;;1.40;1.30;;;;;;;12.36;nan;98288.41;4888094;29;20634;-80
2023/10/31 03:13:59;;;;;;;2.10;1.00;;;;;;;12.34;nan;98292.13;4911827;29;20358;-79
2023/10/31 03:16:25;;;;;;;1.58;1.10;;;;;;;12.32;nan;98291.47;4912037;29;20203;-79
2023/10/31 03:18:51;;;;;;;2.60;1.10;;;;;;;12.32;nan;98289.66;4892650;29;20217;-78
2023/10/31 03:21:17;;;;;;;2.90;1.60;;;;;;;12.31;nan;98289.78;4887690;29;20548;-79
2023/10/31 03:23:46;;;;;;;2.60;1.60;;;;;;;;;;4893480;29;20606;-79
2023/10/31 03:26:11;;;;;;;8.25;1.65;;;;;;;;;;4911924;29;20198;-79
2023/10/31 03:28:36;;;;;;;1.30;1.20;;;;;;;;;;4908156;29;20760;-78
2023/10/31 03:31:02;;;;;;;0.80;0.70;;;;;;;;;;4909130;29;23769;-79
2023/10/31 03:33:27;;;;;;;1.60;1.37;;;;;;;;;;4911584;29;20614;-78
2023/10/31 03:35:53;;;;;;;1.30;1.10;;;;;;;;;;4906186;29;20190;-78
2023/10/31 03:38:18;;;;;;;1.10;0.90;;;;;;;;;;4886360;29;20205;-78
2023/10/31 03:40:43;;;;;;;1.10;0.90;;;;;;;;;;4886121;29;20210;-78
2023/10/31 03:43:11;;;;;;;5.95;1.50;;;;;;;;;;4911800;29;20229;-79
2023/10/31 03:45:36;;;;;;;2.07;1.27;;;;;;;;;;4908248;29;20274;-78
2023/10/31 03:48:02;;;;;;;2.90;1.27;;;;;;;;;;4888717;29;20210;-79
2023/10/31 03:50:27;;;;;;;2.93;1.60;;;;;;;;;;4888400;29;21081;-78
2023/10/31 03:52:53;;;;;;;1.00;0.90;;;;;;;;;;4900730;29;20892;-79
2023/10/31 03:55:18;;;;;;;2.70;1.10;;;;;;;;;;4880605;29;20224;-79
2023/10/31 03:57:44;;;;;;;1.33;0.80;;;;;;;;;;4907449;29;20191;-79
2023/10/31 04:00:11;;;;;;;1.77;1.10;;;;;;;;;;4910687;29;20210;-78
2023/10/31 04:02:41;;;;;;;1.48;0.90;;;;;;;;;;4890389;29;20210;-78
2023/10/31 04:05:07;;;;;;;1.10;0.90;;;;;;;;;;4906746;29;20582;-79
2023/10/31 04:07:33;;;;;;;1.30;0.82;;;;;;;12.24;nan;98309.78;4891586;29;20206;-79
2023/10/31 04:09:59;;;;;;;1.13;1.03;;;;;;;12.22;nan;98312.53;4903460;29;20214;-78
2023/10/31 04:12:24;;;;;;;1.47;1.20;;;;;;;12.21;nan;98323.22;4901756;29;20202;-78
2023/10/31 04:14:50;;;;;;;1.57;1.20;;;;;;;12.21;nan;98325.84;4903821;29;20254;-79
2023/10/31 04:17:15;;;;;;;2.97;2.23;;;;;;;12.20;nan;98329.44;4889692;29;20199;-78
2023/10/31 04:19:41;;;;;;;8.13;2.83;;;;;;;12.20;nan;98334.69;4899964;29;20353;-77
2023/10/31 04:22:06;;;;;;;2.13;0.90;;;;;;;12.20;nan;98332.06;4902757;29;20756;-78
2023/10/31 04:24:32;;;;;;;5.17;1.27;;;;;;;12.21;nan;98323.22;4902356;29;20280;-77
2023/10/31 04:27:00;;;;;;;1.30;1.20;;;;;;;12.18;nan;98325.16;4905121;29;20515;-77
2023/10/31 04:29:25;;;;;;;1.25;0.93;;;;;;;12.17;nan;98331.38;4900729;29;20213;-78
2023/10/31 04:31:51;;;;;;;1.00;0.90;;;;;;;12.14;nan;98331.66;4904893;29;20214;-78
2023/10/31 04:34:16;;;;;;;6.33;1.30;;;;;;;12.13;nan;98331.81;4898512;29;20195;-78
2023/10/31 04:36:41;;;;;;;3.73;1.37;;;;;;;12.13;nan;98334.44;4900564;29;20210;-78
2023/10/31 04:39:07;;;;;;;1.33;0.90;;;;;;;12.12;nan;98330.13;4901182;29;20206;-77
2023/10/31 04:41:32;;;;;;;1.47;0.93;;;;;;;12.11;nan;98337.19;4908832;29;20202;-78
2023/10/31 04:43:58;;;;;;;1.30;1.00;;;;;;;12.12;nan;98333.63;4903730;29;20195;-78
2023/10/31 04:46:27;;;;;;;1.63;1.10;;;;;;;12.13;nan;98340.53;4902435;29;20225;-77
2023/10/31 04:48:53;;;;;;;1.70;1.00;;;;;;;12.14;nan;98339.56;4901508;29;20962;-77
2023/10/31 04:51:19;;;;;;;1.27;1.00;;;;;;;12.14;nan;98342.19;4900776;29;20220;-78
2023/10/31 04:53:44;;;;;;;1.13;1.00;;;;;;;12.15;nan;98343.88;4903058;29;20213;-78
2023/10/31 04:56:14;;;;;;;1.33;0.90;;;;;;;12.16;nan;98345.50;4902081;29;20205;-78
2023/10/31 04:58:39;;;;;;;4.93;1.65;;;;;;;12.18;nan;98348.84;4895906;29;20198;-77
2023/10/31 05:01:08;;;;;;;2.83;1.27;;;;;;;12.20;nan;98355.75;4893704;29;20213;-78
2023/10/31 05:03:34;;;;;;;1.90;1.00;;;;;;;12.21;nan;98362.72;4890969;29;20202;-78
2023/10/31 05:05:59;;;;;;;2.80;1.30;;;;;;;12.21;nan;98354.81;4895749;29;20190;-78
2023/10/31 05:08:24;;;;;;;1.00;0.80;;;;;;;12.21;nan;98347.75;4902028;29;20678;-78
2023/10/31 05:10:50;;;;;;;1.63;0.87;;;;;;;12.23;nan;98358.94;4903213;29;20221;-78
2023/10/31 05:13:15;;;;;;;1.30;0.80;;;;;;;12.24;nan;98349.25;4910383;29;20201;-78
2023/10/31 05:15:41;;;;;;;4.33;1.70;;;;;;;12.24;nan;98357.97;4906399;29;20202;-78
2023/10/31 05:18:06;;;;;;;1.50;1.07;;;;;;;12.25;nan;98361.44;4904635;29;20257;-78
2023/10/31 05:20:31;;;;;;;3.60;3.30;;;;;;;12.26;nan;98360.47;4902381;29;20207;-78
2023/10/31 05:22:57;;;;;;;1.50;0.97;;;;;;;12.24;nan;98357.97;4909832;29;20249;-78
2023/10/31 05:25:22;;;;;;;6.37;1.20;;;;;;;12.27;nan;98372.69;4905162;29;20202;-78
2023/10/31 05:27:48;;;;;;;1.97;1.10;;;;;;;12.29;nan;98373.38;4906984;29;20698;-77
2023/10/31 05:30:14;;;;;;;1.88;1.25;;;;;;;12.31;nan;98379.31;4905731;29;20717;-78
2023/10/31 05:32:39;;;;;;;1.50;1.00;;;;;;;12.29;nan;98378.66;4901683;29;20229;-77
2023/10/31 05:35:05;;;;;;;5.13;1.23;;;;;;;12.30;nan;98375.84;4901784;29;20201;-78
2023/10/31 05:37:30;;;;;;;1.43;1.30;;;;;;;12.31;nan;98380.16;4907608;29;20194;-78
2023/10/31 05:39:56;;;;;;;3.20;1.00;;;;;;;12.32;nan;98373.09;4902483;29;20210;-77
2023/10/31 05:42:23;;;;;;;3.50;1.17;;;;;;;12.34;nan;98368.50;4902048;29;20596;-78
2023/10/31 05:44:48;;;;;;;5.30;1.10;;;;;;;12.34;nan;98368.50;4903960;29;20202;-78
2023/10/31 05:47:14;;;;;;;2.07;1.60;;;;;;;12.35;nan;98372.81;4902911;29;20211;-78
2023/10/31 05:49:42;;;;;;;1.50;1.00;;;;;;;12.37;nan;98376.16;4900492;29;20226;-78
2023/10/31 05:52:07;;;;;;;1.85;1.25;;;;;;;12.37;nan;98369.06;4906178;29;20206;-77
2023/10/31 05:54:32;;;;;;;2.27;1.60;;;;;;;12.39;nan;98367.13;4902407;29;20412;-78
2023/10/31 05:56:58;;;;;;;2.10;1.37;;;;;;;12.39;nan;98374.19;4906412;29;20303;-78
2023/10/31 05:59:23;;;;;;;5.13;1.50;;;;;;;12.38;nan;98369.91;4909480;29;20182;-78
2023/10/31 06:01:50;;;;;;;2.27;1.00;;;;;;;12.38;nan;98369.91;4913676;29;20210;-78
2023/10/31 06:04:15;;;;;;;2.88;1.40;;;;;;;12.39;nan;98380.31;4905639;29;20730;-78
2023/10/31 06:06:41;;;;;;;5.93;1.57;;;;;;;12.38;nan;98376.00;4907866;29;20215;-79
2023/10/31 06:09:06;;;;;;;2.33;1.50;;;;;;;12.37;nan;98379.59;4904960;29;20206;-78
2023/10/31 06:11:32;;;;;;;2.67;1.27;;;;;;;12.37;nan;98387.50;4906418;29;20215;-79
2023/10/31 06:13:59;;;;;;;1.47;1.10;;;;;;;12.37;nan;98382.25;4902735;29;20202;-79
2023/10/31 06:16:24;;;;;;;5.18;1.52;;;;;;;12.38;nan;98385.69;4903557;29;20198;-78
2023/10/31 06:18:50;;;;;;;1.53;1.43;;;;;;;12.38;nan;98378.63;4903361;29;20210;-79
2023/10/31 06:21:15;;;;;;;2.50;1.13;;;;;;;12.39;nan;98382.09;4903570;29;20446;-79
2023/10/31 06:23:42;;;;;;;4.43;1.07;;;;;;;12.39;nan;98382.09;4899580;29;20195;-81
2023/10/31 06:26:08;;;;;;;2.03;1.40;;;;;;;12.37;nan;98384.03;4903497;29;20202;-78
2023/10/31 06:28:35;;;;;;;3.80;1.80;;;;;;;12.37;nan;98386.69;4902454;29;20298;-79
2023/10/31 06:31:02;;;;;;;8.60;2.60;;;;;;;12.37;nan;98394.59;4895256;29;20549;-77
2023/10/31 06:33:27;;;;;;;5.70;3.00;;;;;;;12.36;nan;98399.00;4902761;29;20196;-79
2023/10/31 06:35:56;;;;;;;8.15;4.82;;;;;;;12.36;nan;98404.25;4909866;29;20175;-78
2023/10/31 06:38:21;;;;;;;12.10;5.73;;;;;;;12.33;nan;98412.44;4907647;29;20814;-79
2023/10/31 06:40:47;;;;;;;9.23;4.90;;;;;;;12.33;nan;98411.59;4889572;29;20523;-78
2023/10/31 06:43:12;;;;;;;4.03;2.70;;;;;;;12.29;nan;98415.50;4882715;29;20207;-79
2023/10/31 06:45:38;;;;;;;4.10;3.67;;;;;;;12.27;nan;98415.63;4897558;29;20198;-79
2023/10/31 06:48:06;;;;;;;10.23;4.28;;;;;;;12.27;nan;98415.63;4896695;29;20260;-80
2023/10/31 06:50:35;;;;;;;4.95;2.00;;;;;;;12.28;nan;98419.09;4900512;29;20226;-79
2023/10/31 06:53:00;;;;;;;1.73;1.30;;;;;;;12.29;nan;98428.66;4895502;29;20516;-78
2023/10/31 06:55:26;;;;;;;2.30;1.40;;;;;;;12.30;nan;98423.25;4908696;29;20224;-79
2023/10/31 06:57:51;;;;;;;2.87;1.23;;;;;;;12.33;nan;98435.31;4887008;29;20199;-79
2023/10/31 07:00:17;;;;;;;1.33;1.03;;;;;;;12.34;nan;98434.31;4906964;29;20705;-80
2023/10/31 07:02:42;;;;;;;2.90;1.30;;;;;;;12.34;nan;98443.09;4900958;29;20720;-78
2023/10/31 07:05:08;;;;;;;2.40;1.10;;;;;;;12.37;nan;98441.97;4904773;29;20222;-80
2023/10/31 07:07:33;;;;;;;1.63;0.97;;;;;;;12.39;nan;98443.50;4888504;29;20728;-79
2023/10/31 07:09:59;;;;;;;1.60;1.20;;;;;;;12.42;nan;98445.00;4907188;29;20555;-79
2023/10/31 07:12:28;;;;;;;2.93;1.40;;;;;;;12.46;nan;98446.41;4897626;29;20251;-79
2023/10/31 07:14:53;;;;;;;1.33;1.10;;;;;;;12.49;nan;98461.09;4878568;29;20198;-80
2023/10/31 07:17:18;;;;;;;1.53;1.00;;;;;;;12.51;nan;98460.00;4894215;29;20832;-79
2023/10/31 07:19:47;;;;;;;1.90;1.53;;;;;;;12.55;nan;98455.28;4892927;29;21300;-80
2023/10/31 07:22:12;;;;;;;5.55;1.77;;;;;;;12.57;nan;98456.81;4877113;29;20689;-78
2023/10/31 07:24:38;;;;;;;4.60;1.70;;;;;;;12.60;nan;98459.16;4898024;29;20243;-78
2023/10/31 07:27:04;;;;;;;5.97;3.20;;;;;;;12.62;nan;98457.22;4906475;29;20218;-78
2023/10/31 07:29:29;;;;;;;2.70;1.53;;;;;;;12.66;nan;98459.56;4904353;29;20190;-79
2023/10/31 07:31:54;;;;;;;6.50;3.90;;;;;;;12.68;nan;98465.53;4901820;29;20534;-79
2023/10/31 07:34:20;;;;;;;3.30;2.73;;;;;;;12.72;nan;98461.63;4901125;29;20202;-79
2023/10/31 07:36:45;;;;;;;3.40;1.67;;;;;;;12.74;nan;98463.16;4888434;29;20569;-79
2023/10/31 07:39:12;;;;;;;1.07;0.90;;;;;;;12.77;nan;98468.19;4905796;29;20207;-78
2023/10/31 07:41:38;;;;;;;1.35;1.25;;;;;;;12.81;nan;98463.47;4902444;29;20673;-78
2023/10/31 07:44:03;;;;;;;2.23;1.10;;;;;;;12.83;nan;98466.78;4896556;29;20210;-79
2023/10/31 07:46:29;;;;;;;1.10;1.00;;;;;;;12.87;nan;98470.78;4898335;29;20217;-79
2023/10/31 07:48:55;;;;;;;1.83;0.90;;;;;;;12.89;nan;98466.22;4906079;29;20477;-79
2023/10/31 07:51:20;;;;;;;4.93;2.10;;;;;;;12.95;nan;98472.75;4888764;29;20212;-78
2023/10/31 07:53:46;;;;;;;5.30;3.50;;;;;;;12.94;nan;98479.81;4899984;29;20210;-78
2023/10/31 07:56:16;;;;;;;12.40;5.97;;;;;;;12.97;nan;98482.16;4901886;29;20217;-78
2023/10/31 07:58:41;;;;;;;7.82;6.30;;;;;;;13.00;nan;98481.88;4898251;29;21035;-79
2023/10/31 08:01:10;;;;;;;10.43;3.17;;;;;;;13.01;nan;98491.44;4907070;29;20648;-80
2023/10/31 08:03:39;;;;;;;5.95;2.45;;;;;;;13.04;nan;98499.09;4898217;29;20205;-80
2023/10/31 08:06:06;;;;;;;7.03;2.88;;;;;;;13.05;nan;98502.56;4901313;29;20225;-80
2023/10/31 08:08:32;;;;;;;2.35;1.10;;;;;;;13.03;nan;98492.16;4904022;29;20213;-79
2023/10/31 08:10:58;;;;;;;3.00;1.80;;;;;;;13.05;nan;98502.56;4909388;29;20608;-79
2023/10/31 08:13:24;;;;;;;8.10;3.80;;;;;;;13.07;nan;98506.72;4898552;29;20963;-79
2023/10/31 08:15:49;;;;;;;4.20;1.57;;;;;;;13.09;nan;98505.75;4903891;29;20217;-80
2023/10/31 08:18:15;;;;;;;1.83;1.10;;;;;;;13.11;nan;98496.72;4899801;29;20210;-78
2023/10/31 08:20:40;;;;;;;2.20;1.60;;;;;;;13.13;nan;98500.06;4902490;29;20679;-78
2023/10/31 08:23:06;;;;;;;1.03;0.80;;;;;;;13.18;nan;98497.81;4906397;29;21017;-78
2023/10/31 08:25:31;;;;;;;1.33;1.07;;;;;;;13.13;nan;98505.31;4905897;29;20209;-79
2023/10/31 08:27:56;;;;;;;1.67;1.30;;;;;;;13.13;nan;98515.88;4899924;29;20780;-79
2023/10/31 08:30:22;;;;;;;5.30;1.80;;;;;;;13.12;nan;98508.91;4909303;29;20725;-78
2023/10/31 08:32:48;;;;;;;6.07;3.37;;;;;;;13.16;nan;98509.50;4908750;29;20225;-78
2023/10/31 08:35:13;;;;;;;9.47;3.97;;;;;;;13.17;nan;98508.50;4907819;29;20202;-79
2023/10/31 08:37:39;;;;;;;3.97;2.00;;;;;;;13.30;nan;98521.44;4907266;29;20505;-79
2023/10/31 08:40:05;;;;;;;1.33;1.10;;;;;;;13.42;nan;98513.22;4907766;29;20217;-79
2023/10/31 08:42:30;;;;;;;0.98;0.90;;;;;;;13.57;nan;98520.69;4909745;29;20305;-78
2023/10/31 08:44:56;;;;;;;1.60;0.90;;;;;;;13.65;nan;98518.16;4912985;29;20284;-74
2023/10/31 08:47:22;;;;;;;2.40;1.00;;;;;;;13.65;nan;98526.91;4905781;29;20218;-79
2023/10/31 08:49:47;;;;;;;0.85;0.85;;;;;;;13.68;nan;98525.78;4900466;29;20230;-79
2023/10/31 08:52:13;;;;;;;2.23;1.30;;;;;;;13.72;nan;98529.81;4907377;29;20219;-78
2023/10/31 08:54:38;;;;;;;1.07;1.00;;;;;;;13.75;nan;98526.03;4903564;29;20230;-78
2023/10/31 08:57:04;;;;;;;1.47;1.30;;;;;;;13.78;nan;98523.94;4903975;29;20681;-79
2023/10/31 08:59:29;;;;;;;6.80;3.50;;;;;;;13.87;nan;98528.34;4902052;29;20199;-79
2023/10/31 09:01:55;;;;;;;1.30;1.20;;;;;;;14.00;nan;98537.75;4908600;29;20753;-79
2023/10/31 09:04:20;;;;;;;1.10;1.00;;;;;;;14.11;nan;98534.91;4912995;29;20190;-79
2023/10/31 09:06:45;;;;;;;1.10;1.00;;;;;;;14.20;nan;98531.38;4886055;29;20579;-78
2023/10/31 09:09:11;;;;;;;1.93;0.97;;;;;;;14.27;nan;98537.75;4903120;29;20210;-78
2023/10/31 09:11:36;;;;;;;1.63;0.90;;;;;;;14.28;nan;98534.13;4903705;29;20217;-79
2023/10/31 09:14:02;;;;;;;1.20;1.00;;;;;;;14.31;nan;98525.94;4905096;29;20206;-78
2023/10/31 09:16:27;;;;;;;1.07;0.80;;;;;;;14.36;nan;98528.09;4908901;29;20237;-78
2023/10/31 09:18:52;;;;;;;1.87;0.93;;;;;;;14.49;nan;98528.56;4905008;29;20191;-82
2023/10/31 09:21:18;;;;;;;1.93;1.40;;;;;;;14.60;nan;98522.28;4913299;29;20524;-80
2023/10/31 09:23:43;;;;;;;3.30;1.00;;;;;;;14.57;nan;98530.50;4904748;29;20233;-82
2023/10/31 09:26:09;;;;;;;3.43;1.03;;;;;;;14.50;nan;98532.91;4907626;29;20198;-78
2023/10/31 09:28:36;;;;;;;1.27;1.10;;;;;;;14.46;nan;98522.78;4906590;29;20726;-78
2023/10/31 09:31:02;;;;;;;2.10;1.25;;;;;;;14.56;nan;98524.41;4901448;29;20214;-81
2023/10/31 09:33:27;;;;;;;4.07;1.43;;;;;;;14.73;nan;98522.75;4901652;29;20250;-78
2023/10/31 09:35:52;;;;;;;3.40;1.40;;;;;;;14.96;nan;98519.63;4907349;29;20195;-79
2023/10/31 09:38:18;;;;;;;4.10;1.23;;;;;;;15.10;nan;98523.56;4910012;29;20204;-81
2023/10/31 09:40:43;;;;;;;2.23;1.30;;;;;;;15.23;nan;98516.91;4906503;29;20217;-82
2023/10/31 09:43:09;;;;;;;1.20;0.90;;;;;;;15.36;nan;98523.59;4904612;29;20273;-81
2023/10/31 09:45:34;;;;;;;2.80;0.80;;;;;;;15.42;nan;98515.88;4905241;29;20202;-79
2023/10/31 09:48:02;;;;;;;1.90;1.10;;;;;;;15.47;nan;98528.63;4909869;29;20470;-79
2023/10/31 09:50:29;;;;;;;3.28;1.00;;;;;;;15.48;nan;98520.53;4907600;29;20222;-78
2023/10/31 09:52:56;;;;;;;1.85;1.75;;;;;;;15.51;nan;98510.63;4907619;29;20725;-78
2023/10/31 09:55:22;;;;;;;3.08;1.25;;;;;;;15.54;nan;98524.38;4908849;29;20211;-78
2023/10/31 09:57:48;;;;;;;1.13;1.02;;;;;;;15.62;nan;98516.50;4903906;29;20703;-82
2023/10/31 10:00:13;;;;;;;2.80;1.30;;;;;;;15.62;nan;98516.50;4905338;29;20186;-82
2023/10/31 10:02:39;;;;;;;1.70;1.27;;;;;;;15.63;nan;98517.31;4904047;29;20210;-81
2023/10/31 10:05:05;;;;;;;3.77;1.47;;;;;;;15.70;nan;98516.56;4905865;29;20242;-78
2023/10/31 10:07:33;;;;;;;3.60;1.15;;;;;;;15.77;nan;98530.03;4900078;29;20447;-82
2023/10/31 10:10:00;;;;;;;1.27;1.10;;;;;;;15.81;nan;98518.13;4907482;29;20217;-79
2023/10/31 10:12:26;;;;;;;1.85;1.00;;;;;;;15.84;nan;98516.97;4901288;29;20270;-78
2023/10/31 10:14:52;;;;;;;2.08;1.23;;;;;;;15.81;nan;98515.47;4907664;29;20208;-82
2023/10/31 10:17:21;;;;;;;7.00;3.10;;;;;;;15.78;nan;98517.63;4909307;29;20204;-79
2023/10/31 10:19:46;;;;;;;3.28;2.45;;;;;;;15.85;nan;98514.19;4905788;29;20530;-83
2023/10/31 10:22:13;;;;;;;5.27;3.40;;;;;;;16.04;nan;98522.84;4908551;29;20563;-78
2023/10/31 10:24:41;;;;;;;5.65;2.80;;;;;;;16.19;nan;98517.78;4905703;29;20690;-80
2023/10/31 10:27:11;;;;;;;2.28;1.30;;;;;;;16.28;nan;98517.66;4903270;29;20250;-79
2023/10/31 10:29:38;;;;;;;8.55;5.05;;;;;;;16.33;nan;98515.34;4903967;29;20735;-82
2023/10/31 10:32:08;;;;;;;4.63;2.15;;;;;;;16.34;nan;98517.03;4901921;29;20207;-83
2023/10/31 10:34:34;;;;;;;5.50;2.17;;;;;;;16.33;nan;98520.63;4908257;29;20200;-78
2023/10/31 10:37:06;;;;;;;5.20;2.67;;;;;;;16.40;nan;98520.03;4905125;29;20451;-79
2023/10/31 10:39:33;;;;;;;3.05;2.35;;;;;;;16.50;nan;98526.84;4899109;29;20199;-82
2023/10/31 10:42:00;;;;;;;1.98;1.25;;;;;;;16.54;nan;98532.63;4907971;29;20243;-81
2023/10/31 10:44:34;;;;;;;3.38;1.25;;;;;;;16.49;nan;98521.69;4907412;29;20199;-78
2023/10/31 10:47:05;;;;;;;2.65;1.63;;;;;;;16.58;nan;98521.56;4903454;29;20283;-83
2023/10/31 10:49:36;;;;;;;2.03;1.80;;;;;;;16.72;nan;98516.63;4892010;29;20706;-79
2023/10/31 10:52:15;;;;;;;5.47;2.75;;;;;;;16.83;nan;98520.81;4908665;29;20577;-79
2023/10/31 10:54:51;;;;;;;5.05;1.88;;;;;;;16.87;nan;98514.97;4906002;29;20219;-78
2023/10/31 10:57:38;;;;;;;4.88;3.05;;;;;;;16.84;nan;98525.94;4905738;29;20317;-78
2023/10/31 11:00:08;;;;;;;4.30;3.10;;;;;;;16.73;nan;98523.56;4898523;29;20213;-80
2023/10/31 11:02:36;;;;;;;6.45;3.50;;;;;;;16.62;nan;98513.28;4917007;29;20231;-81
2023/10/31 11:05:07;;;;;;;2.65;2.20;;;;;;;16.57;nan;98517.22;4906304;29;20381;-81
2023/10/31 11:07:34;;;;;;;1.97;1.20;;;;;;;16.53;nan;98509.78;4906816;29;20537;-79
2023/10/31 11:10:02;;;;;;;2.67;1.10;;;;;;;16.52;nan;98519.53;4909032;29;20472;-78
2023/10/31 11:12:29;;;;;;;1.08;0.80;;;;;;;16.52;nan;98511.59;4898015;29;20713;-79
2023/10/31 11:15:00;;;;;;;1.00;0.75;;;;;;;16.54;nan;98514.91;4882406;29;20203;-82
2023/10/31 11:17:31;;;;;;;1.17;0.90;;;;;;;16.54;nan;98506.94;4900505;29;20203;-79
2023/10/31 11:19:57;;;;;;;1.35;0.80;;;;;;;16.58;nan;98516.25;4901443;29;20485;-80
2023/10/31 11:22:23;;;;;;;0.82;0.68;;;;;;;16.71;nan;98512.28;4907774;29;20597;-77
2023/10/31 11:24:50;;;;;;;1.10;0.90;;;;;;;16.79;nan;98505.19;4908113;29;20216;-79
2023/10/31 11:27:17;;;;;;;2.03;1.00;;;;;;;16.79;nan;98520.28;4902684;29;20219;-80
2023/10/31 11:29:43;;;;;;;1.58;0.80;;;;;;;16.81;nan;98510.34;4901488;29;20214;-78
2023/10/31 11:32:10;;;;;;;2.33;0.80;;;;;;;16.81;nan;98513.00;4905940;29;20209;-79
2023/10/31 11:34:41;;;;;;;1.48;0.98;;;;;;;16.80;nan;98514.00;4903339;29;20461;-78
2023/10/31 11:37:26;;;;;;;1.10;0.90;;;;;;;16.72;nan;98508.66;4907461;29;20248;-81
2023/10/31 11:40:18;;;;;;;3.13;0.90;;;;;;;16.57;nan;98522.53;4907157;29;20799;-80
2023/10/31 11:42:51;;;;;;;1.83;0.80;;;;;;;16.53;nan;98515.91;4904170;29;20230;-78
2023/10/31 11:45:31;;;;;;;1.58;0.77;;;;;;;16.55;nan;98524.53;4901844;29;20275;-79
2023/10/31 11:47:57;;;;;;;2.33;1.00;;;;;;;16.64;nan;98537.81;4902235;29;20223;-79
2023/10/31 11:50:23;;;;;;;0.80;0.73;;;;;;;16.60;nan;98527.50;4905359;29;20225;-82
2023/10/31 11:53:08;;;;;;;1.53;0.80;;;;;;;16.57;nan;98535.78;4903452;29;20218;-83
2023/10/31 11:55:40;;;;;;;2.03;1.10;;;;;;;16.50;nan;98528.63;4903844;29;20470;-78